Time;durP1;ratioP1;P1;durP2;ratioP2;P2;SDS_P1;SDS_P2;PMS_P1;PMS_P2;Temp;Humidity;BMP_temperature;BMP_pressure;BME280_temperature;BME280_humidity;BME280_pressure;Samples;Min_cycle;Max_cycle;Signal;HPM_P1;HPM_P2
2024/04/07 00:01:51;;;;;;;5.75;2.60;;;;;;;21.63;43.81;100742.00;4955000;28;122656;-80
2024/04/07 00:04:18;;;;;;;8.25;3.08;;;;;;;21.63;43.78;100734.75;4943885;28;113272;-81
2024/04/07 00:06:44;;;;;;;4.35;2.70;;;;;;;21.64;43.86;100744.53;4935215;28;112846;-81
2024/04/07 00:09:10;;;;;;;4.13;2.60;;;;;;;21.64;43.81;100744.53;4944246;28;123469;-81
2024/04/07 00:11:36;;;;;;;7.85;2.20;;;;;;;21.67;43.70;100748.81;4963243;28;123847;-81
2024/04/07 00:14:02;;;;;;;4.50;2.60;;;;;;;21.68;43.71;100755.88;4931358;28;113389;-80
2024/04/07 00:16:28;;;;;;;4.80;2.70;;;;;;;21.68;43.85;100777.44;4961971;28;115214;-81
2024/04/07 00:18:55;;;;;;;3.40;2.30;;;;;;;21.69;43.79;100785.41;4964536;28;125214;-81
2024/04/07 00:21:21;;;;;;;4.55;2.70;;;;;;;21.70;44.12;100776.34;4929562;28;123374;-81
2024/04/07 00:23:47;;;;;;;4.45;2.83;;;;;;;21.72;43.89;100784.28;4953869;28;113620;-81
2024/04/07 00:26:13;;;;;;;4.80;2.40;;;;;;;21.74;43.83;100793.06;4966942;28;112770;-80
2024/04/07 00:28:39;;;;;;;4.85;2.65;;;;;;;21.75;43.83;100790.22;4963047;28;124138;-80
2024/04/07 00:31:07;;;;;;;5.93;2.50;;;;;;;21.77;43.99;100769.38;4940152;28;123564;-80
2024/04/07 00:33:33;;;;;;;4.68;2.60;;;;;;;21.79;43.74;100761.13;4938603;28;113213;-81
2024/04/07 00:36:01;;;;;;;4.90;2.33;;;;;;;21.82;43.66;100781.56;4928965;28;113689;-81
2024/04/07 00:38:28;;;;;;;4.30;2.80;;;;;;;21.83;43.84;100786.81;4964510;28;123840;-81
2024/04/07 00:40:56;;;;;;;3.55;2.60;;;;;;;21.83;43.94;100803.00;4962884;28;123633;-80
2024/04/07 00:43:27;;;;;;;5.03;2.60;;;;;;;21.84;43.69;100799.28;4958280;28;113580;-80
2024/04/07 00:45:55;;;;;;;5.03;3.03;;;;;;;21.84;43.94;100790.38;4951583;28;114246;-81
2024/04/07 00:48:22;;;;;;;4.85;3.05;;;;;;;21.83;43.82;100803.00;4964606;28;124286;-81
2024/04/07 00:50:51;;;;;;;5.55;2.92;;;;;;;21.83;43.82;100819.19;4969554;28;124846;-81
2024/04/07 00:53:18;;;;;;;5.63;3.20;;;;;;;21.82;43.88;100839.03;4960182;28;113663;-81
2024/04/07 00:55:45;;;;;;;6.45;3.10;;;;;;;21.83;43.78;100837.19;4966952;28;113405;-80
2024/04/07 00:58:13;;;;;;;7.95;3.20;;;;;;;21.82;43.74;100828.25;4946108;28;124027;-81
2024/04/07 01:00:42;;;;;;;8.20;2.70;;;;;;;21.82;43.81;100854.38;4927641;28;123148;-81
2024/04/07 01:03:09;;;;;;;8.45;3.25;;;;;;;21.82;43.71;100868.69;4938266;28;114941;-81
2024/04/07 01:05:46;;;;;;;7.97;2.92;;;;;;;21.81;43.66;100858.88;4964383;28;115705;-81
2024/04/07 01:08:14;;;;;;;6.05;3.00;;;;;;;21.81;43.49;100853.50;4967026;28;123494;-81
2024/04/07 01:10:41;;;;;;;8.05;3.08;;;;;;;21.84;43.38;100842.44;4966834;28;124117;-80
2024/04/07 01:13:09;;;;;;;10.10;3.15;;;;;;;21.85;43.53;100836.06;4945811;28;113816;-81
2024/04/07 01:15:37;;;;;;;6.38;2.75;;;;;;;21.86;43.41;100872.81;4950554;28;112784;-81
2024/04/07 01:18:04;;;;;;;7.45;2.85;;;;;;;21.88;43.17;100870.81;4938539;28;123547;-81
2024/04/07 01:20:32;;;;;;;8.68;3.03;;;;;;;21.89;43.30;100901.34;4956704;28;123807;-81
2024/04/07 01:22:58;;;;;;;8.18;2.72;;;;;;;21.91;43.34;100940.66;4947250;28;114372;-81
2024/04/07 01:25:25;;;;;;;6.70;2.72;;;;;;;21.91;43.39;100927.16;4952062;28;113672;-81
2024/04/07 01:27:54;;;;;;;5.65;2.22;;;;;;;21.92;43.31;100915.38;4955945;28;124328;-81
2024/04/07 01:30:22;;;;;;;6.22;2.00;;;;;;;21.92;43.52;100915.38;4942040;28;123855;-81
2024/04/07 01:32:48;;;;;;;9.30;2.72;;;;;;;21.93;43.50;100927.03;4957840;28;113346;-81
2024/04/07 01:35:15;;;;;;;6.25;2.60;;;;;;;21.92;43.41;100936.09;4944479;28;114186;-81
2024/04/07 01:37:42;;;;;;;6.18;2.05;;;;;;;21.89;43.42;100926.47;4966125;28;124142;-81
2024/04/07 01:40:09;;;;;;;7.07;2.20;;;;;;;21.87;43.50;100944.63;4963375;28;123261;-80
2024/04/07 01:42:36;;;;;;;4.88;2.13;;;;;;;21.85;43.56;100925.03;4955461;28;113434;-81
2024/04/07 01:45:04;;;;;;;6.57;2.00;;;;;;;21.80;43.66;100927.31;4951486;28;114131;-81
2024/04/07 01:47:30;;;;;;;4.88;1.73;;;;;;;21.75;43.62;100924.16;4947154;28;124571;-80
2024/04/07 01:49:57;;;;;;;7.20;2.50;;;;;;;21.71;43.59;100945.16;4932598;28;123099;-81
2024/04/07 01:52:23;;;;;;;6.78;2.00;;;;;;;21.66;43.80;100947.44;4962437;28;114627;-80
2024/04/07 01:54:49;;;;;;;7.15;2.05;;;;;;;21.63;43.90;100971.13;4959505;28;114592;-81
2024/04/07 01:57:15;;;;;;;3.45;1.90;;;;;;;21.60;43.89;100966.00;4947197;28;123154;-80
2024/04/07 01:59:42;;;;;;;5.72;2.17;;;;;;;21.55;44.05;100982.59;4925906;28;123477;-81
2024/04/07 02:02:08;;;;;;;4.40;1.77;;;;;;;21.52;44.19;100983.69;4937571;28;113467;-81
2024/04/07 02:04:34;;;;;;;5.55;2.30;;;;;;;21.50;44.23;100996.47;4957822;28;114278;-80
2024/04/07 02:07:00;;;;;;;4.53;1.85;;;;;;;21.47;44.39;101023.66;4965059;28;124810;-81
2024/04/07 02:09:27;;;;;;;9.02;2.22;;;;;;;21.44;44.40;101029.34;4947483;28;123798;-80
2024/04/07 02:11:54;;;;;;;6.30;1.85;;;;;;;21.41;44.49;101045.75;4942571;28;114411;-81
2024/04/07 02:14:20;;;;;;;2.95;1.70;;;;;;;21.38;44.51;101046.03;4956666;28;114435;-81
2024/04/07 02:16:46;;;;;;;5.10;1.90;;;;;;;21.35;44.56;101067.84;4931453;28;123521;-80
2024/04/07 02:19:13;;;;;;;3.65;1.90;;;;;;;21.30;44.57;101065.53;4952375;28;123897;-81
2024/04/07 02:21:39;;;;;;;4.90;1.70;;;;;;;21.28;44.71;101077.44;4949226;28;114237;-81
2024/04/07 02:24:05;;;;;;;5.40;2.20;;;;;;;21.23;44.65;101085.06;4949049;28;114582;-80
2024/04/07 02:26:32;;;;;;;5.93;1.77;;;;;;;21.18;44.43;101107.88;4941815;28;122620;-81
2024/04/07 02:28:58;;;;;;;4.97;2.03;;;;;;;21.17;44.83;101103.47;4949307;28;122955;-80
2024/04/07 02:31:25;;;;;;;4.55;1.67;;;;;;;21.14;44.82;101114.50;4950783;28;114207;-82
2024/04/07 02:33:52;;;;;;;4.80;1.73;;;;;;;21.11;44.97;101109.38;4926358;28;113220;-80
2024/04/07 02:36:18;;;;;;;5.95;2.00;;;;;;;21.07;44.86;101107.94;4960086;28;123571;-81
2024/04/07 02:38:44;;;;;;;5.35;1.63;;;;;;;21.06;45.26;101117.00;4929867;28;122808;-81
2024/04/07 02:41:11;;;;;;;4.97;1.95;;;;;;;21.03;45.15;101119.97;4961380;28;115033;-81
2024/04/07 02:43:37;;;;;;;4.35;1.70;;;;;;;20.99;45.15;101123.91;4960128;28;115345;-81
2024/04/07 02:48:48;;;;;;;4.13;1.58;;;;;;;20.89;45.27;101110.38;4957776;28;123901;-81
2024/04/07 02:51:14;;;;;;;3.90;1.58;;;;;;;20.85;45.26;101108.03;4955473;28;114411;-81
2024/04/07 02:53:40;;;;;;;3.53;1.40;;;;;;;20.80;45.42;101111.97;4948804;28;113203;-81
2024/04/07 02:56:07;;;;;;;4.13;1.60;;;;;;;20.77;45.63;101117.63;4961897;28;124060;-81
2024/04/07 02:58:34;;;;;;;3.58;1.65;;;;;;;20.74;45.58;101112.50;4949769;28;122760;-81
2024/04/07 03:01:05;;;;;;;3.75;1.48;;;;;;;20.71;45.38;101106.53;4963459;28;114701;-82
2024/04/07 03:03:31;;;;;;;4.38;1.73;;;;;;;20.69;45.54;101092.34;4943926;28;113904;-81
2024/04/07 03:05:58;;;;;;;3.40;1.42;;;;;;;20.67;45.39;101111.31;4962833;28;123962;-80
2024/04/07 03:08:24;;;;;;;4.10;1.80;;;;;;;20.65;45.44;101117.81;4969133;28;124318;-81
2024/04/07 03:10:58;;;;;;;4.03;1.63;;;;;;;20.61;45.39;101127.97;4964359;28;114703;-81
2024/04/07 03:13:24;;;;;;;3.67;1.55;;;;;;;20.60;45.37;101131.63;4959841;28;113414;-81
2024/04/07 03:15:51;;;;;;;5.07;1.50;;;;;;;20.57;45.51;101129.19;4950664;28;122793;-81
2024/04/07 03:18:18;;;;;;;2.38;1.30;;;;;;;20.55;45.35;101144.56;4951752;28;122653;-81
2024/04/07 03:20:44;;;;;;;4.82;1.67;;;;;;;20.53;45.50;101157.31;4962370;28;113730;-81
2024/04/07 03:23:10;;;;;;;5.40;1.50;;;;;;;20.51;45.42;101153.88;4967560;28;114318;-81
2024/04/07 03:25:36;;;;;;;3.20;1.40;;;;;;;20.50;45.43;101158.41;4965293;28;125342;-81
2024/04/07 03:28:03;;;;;;;3.97;1.80;;;;;;;20.50;45.48;101141.44;4931741;28;122273;-80
2024/04/07 03:30:29;;;;;;;2.88;1.30;;;;;;;20.50;45.26;101130.66;4950157;28;114603;-80
2024/04/07 03:32:56;;;;;;;3.15;1.70;;;;;;;20.48;44.80;101148.78;4947506;28;115429;-81
2024/04/07 03:35:22;;;;;;;3.72;1.10;;;;;;;20.47;44.92;101120.16;4951599;28;123240;-81
2024/04/07 03:37:50;;;;;;;2.00;1.27;;;;;;;20.43;44.64;101120.38;4962211;28;123619;-81
2024/04/07 03:40:17;;;;;;;3.45;1.23;;;;;;;20.43;44.44;101141.91;4951995;28;113924;-81
2024/04/07 03:42:44;;;;;;;3.08;1.23;;;;;;;20.42;44.33;101129.47;4939935;28;113018;-81
2024/04/07 03:45:10;;;;;;;1.98;1.27;;;;;;;20.40;44.24;101126.03;4972150;28;123012;-81
2024/04/07 03:47:37;;;;;;;2.53;0.80;;;;;;;20.38;44.02;101128.00;4959673;28;124377;-80
2024/04/07 03:50:03;;;;;;;1.90;1.02;;;;;;;20.36;44.21;101135.34;4940296;28;114208;-81
2024/04/07 03:52:29;;;;;;;1.33;0.80;;;;;;;20.35;44.17;101117.47;4957619;28;113361;-81
2024/04/07 03:54:56;;;;;;;2.50;1.10;;;;;;;20.34;44.05;101121.16;4967129;28;123091;-82
2024/04/07 03:57:22;;;;;;;1.27;0.70;;;;;;;20.32;44.12;101123.09;4946797;28;123437;-81
2024/04/07 03:59:48;;;;;;;2.50;0.90;;;;;;;20.29;44.17;101118.00;4964926;28;113986;-81
2024/04/07 04:02:25;;;;;;;2.20;1.02;;;;;;;20.27;44.06;101125.34;4931692;28;114490;-81
2024/04/07 04:04:59;;;;;;;3.38;1.70;;;;;;;20.24;43.90;101109.44;4956818;28;124671;-82
2024/04/07 04:07:28;;;;;;;2.22;1.17;;;;;;;20.22;43.92;101100.66;4971294;28;123863;-81
2024/04/07 04:09:56;;;;;;;4.15;0.90;;;;;;;20.22;44.02;101089.88;4964287;28;114280;-81
2024/04/07 04:12:23;;;;;;;1.88;1.15;;;;;;;20.20;43.74;101091.84;4942063;28;114909;-82
2024/04/07 04:14:53;;;;;;;1.42;0.82;;;;;;;20.19;43.98;101090.13;4947034;28;124055;-81
2024/04/07 04:17:20;;;;;;;2.30;0.95;;;;;;;20.17;43.78;101092.97;4948496;28;122683;-82
2024/04/07 04:19:46;;;;;;;1.90;1.00;;;;;;;20.15;43.56;101094.06;4947170;28;118319;-82
2024/04/07 04:22:13;;;;;;;1.30;1.10;;;;;;;20.15;43.55;101104.81;4964762;28;114073;-81
2024/04/07 04:24:39;;;;;;;1.17;0.80;;;;;;;20.14;43.58;101097.75;4948256;28;124718;-81
2024/04/07 04:27:06;;;;;;;2.95;0.85;;;;;;;20.12;43.47;101099.69;4946673;28;124237;-81
2024/04/07 04:29:34;;;;;;;1.52;0.82;;;;;;;20.11;43.45;101093.44;4950305;28;113148;-82
2024/04/07 04:32:00;;;;;;;1.38;0.82;;;;;;;20.10;43.51;101107.00;4929581;28;112874;-81
2024/04/07 04:34:27;;;;;;;3.10;0.90;;;;;;;20.11;43.49;101108.72;4957304;28;124217;-81
2024/04/07 04:36:53;;;;;;;2.03;1.00;;;;;;;20.08;43.32;101109.84;4937801;28;124168;-81
2024/04/07 04:39:19;;;;;;;1.20;1.02;;;;;;;20.10;43.21;101117.75;4924979;28;113082;-81
2024/04/07 04:41:46;;;;;;;1.95;0.60;;;;;;;20.09;43.16;101121.44;4960404;28;112625;-81
2024/04/07 04:44:13;;;;;;;2.70;0.90;;;;;;;20.10;43.40;101117.75;4953171;28;124871;-81
2024/04/07 04:46:44;;;;;;;1.00;0.75;;;;;;;20.11;43.15;101114.09;4960871;28;124175;-81
2024/04/07 04:49:11;;;;;;;2.08;1.10;;;;;;;20.10;43.05;101096.25;4961254;28;114592;-81
2024/04/07 04:51:37;;;;;;;2.17;0.80;;;;;;;20.09;42.92;101091.88;4959083;28;112941;-81
2024/04/07 04:54:04;;;;;;;2.17;1.10;;;;;;;20.09;43.09;101094.56;4959698;28;123919;-82
2024/04/07 04:56:30;;;;;;;1.15;0.88;;;;;;;20.10;42.93;101112.38;4949266;28;122800;-82
2024/04/07 04:58:57;;;;;;;1.60;1.10;;;;;;;20.09;42.68;101116.91;4950422;28;113078;-81
2024/04/07 05:01:24;;;;;;;3.08;0.82;;;;;;;20.09;42.86;101121.44;4947743;28;113807;-81
2024/04/07 05:03:52;;;;;;;2.25;1.15;;;;;;;20.09;42.67;101116.06;4956994;28;123903;-82
2024/04/07 05:06:19;;;;;;;2.35;0.93;;;;;;;20.10;42.48;101139.28;4945128;28;126354;-80
2024/04/07 05:08:46;;;;;;;1.35;0.90;;;;;;;20.09;42.56;101137.59;4957589;28;115091;-81
2024/04/07 05:11:13;;;;;;;2.78;1.15;;;;;;;20.08;42.94;101135.84;4956726;28;114641;-81
2024/04/07 05:13:39;;;;;;;3.95;1.13;;;;;;;20.08;42.54;101146.63;4921381;28;124362;-81
2024/04/07 05:16:06;;;;;;;1.85;1.17;;;;;;;20.08;42.63;101141.25;4957543;28;124600;-81
2024/04/07 05:18:33;;;;;;;2.78;0.93;;;;;;;20.07;42.37;101147.63;4947062;28;113409;-81
2024/04/07 05:21:07;;;;;;;1.75;0.98;;;;;;;20.05;42.49;101158.47;4940608;28;112117;-83
2024/04/07 05:23:37;;;;;;;2.42;0.85;;;;;;;20.05;42.37;101157.63;4979991;28;126546;-82
2024/04/07 05:26:14;;;;;;;1.10;0.95;;;;;;;20.02;42.42;101159.59;4968010;28;123101;-81
2024/04/07 05:28:40;;;;;;;1.35;0.90;;;;;;;20.05;42.46;101173.78;4950360;28;113613;-81
2024/04/07 05:31:11;;;;;;;1.70;1.13;;;;;;;20.03;42.63;101177.41;4956519;28;113475;-81
2024/04/07 05:33:38;;;;;;;2.38;0.80;;;;;;;20.05;42.51;101168.41;4957721;28;123297;-82
2024/04/07 05:36:05;;;;;;;4.57;1.15;;;;;;;20.03;42.50;101166.66;4964021;28;123744;-81
2024/04/07 05:38:32;;;;;;;1.50;0.82;;;;;;;20.03;42.62;101161.28;4940462;28;113394;-81
2024/04/07 05:40:59;;;;;;;1.30;1.00;;;;;;;20.03;42.41;101161.28;4924630;28;113293;-81
2024/04/07 05:43:25;;;;;;;2.53;1.10;;;;;;;20.03;42.40;101172.03;4944379;28;122441;-80
2024/04/07 05:45:52;;;;;;;1.40;0.85;;;;;;;20.03;42.42;101181.94;4928950;28;123235;-81
2024/04/07 05:48:20;;;;;;;1.30;1.05;;;;;;;20.03;42.53;101187.34;4929521;28;113854;-80
2024/04/07 05:50:47;;;;;;;1.20;0.70;;;;;;;20.03;42.66;101196.25;4956831;28;114268;-81
2024/04/07 05:53:13;;;;;;;2.65;1.02;;;;;;;20.05;42.77;101200.66;4945453;28;123143;-80
2024/04/07 05:55:40;;;;;;;1.27;0.90;;;;;;;20.05;42.64;101206.03;4933083;28;124231;-81
2024/04/07 05:58:06;;;;;;;2.85;1.25;;;;;;;20.07;42.57;101214.84;4941563;28;113244;-81
2024/04/07 06:00:34;;;;;;;1.60;0.57;;;;;;;20.08;42.62;101221.91;4963227;28;114033;-81
2024/04/07 06:03:03;;;;;;;2.08;0.90;;;;;;;20.08;42.70;101221.91;4947761;28;123666;-80
2024/04/07 06:05:32;;;;;;;1.55;0.80;;;;;;;20.08;42.67;101235.34;4961619;28;124651;-81
2024/04/07 06:07:59;;;;;;;1.65;0.70;;;;;;;20.07;42.70;101225.59;4945128;28;113097;-81
2024/04/07 06:10:25;;;;;;;2.58;0.82;;;;;;;20.08;42.79;101227.28;4958972;28;113951;-81
2024/04/07 06:12:51;;;;;;;1.55;1.20;;;;;;;20.11;42.85;101229.75;4946935;28;123244;-81
2024/04/07 06:15:20;;;;;;;1.10;0.73;;;;;;;20.12;42.86;101234.16;4958455;28;123879;-81
2024/04/07 06:17:49;;;;;;;1.65;0.95;;;;;;;20.12;42.89;101239.53;4959646;28;114230;-81
2024/04/07 06:20:16;;;;;;;2.45;0.82;;;;;;;20.15;42.78;101241.97;4957661;28;113774;-82
2024/04/07 06:22:43;;;;;;;2.55;0.90;;;;;;;20.15;42.87;101239.28;4948655;28;123926;-83
2024/04/07 06:25:09;;;;;;;1.83;0.90;;;;;;;20.16;42.88;101251.75;4967893;28;123438;-82
2024/04/07 06:27:36;;;;;;;2.47;0.73;;;;;;;20.16;42.88;101251.75;4966169;28;115142;-81
2024/04/07 06:30:03;;;;;;;1.27;0.90;;;;;;;20.16;43.04;101252.59;4960297;28;113861;-82
2024/04/07 06:32:30;;;;;;;2.28;0.82;;;;;;;20.16;43.04;101251.75;4969687;28;124001;-81
2024/04/07 06:34:57;;;;;;;1.83;0.82;;;;;;;20.17;43.23;101248.06;4948705;28;123750;-81
2024/04/07 06:37:24;;;;;;;1.45;0.93;;;;;;;20.18;43.08;101255.19;4960182;28;114436;-81
2024/04/07 06:39:50;;;;;;;2.38;0.77;;;;;;;20.19;43.12;101256.88;4935498;28;113068;-81
2024/04/07 06:42:42;;;;;;;2.28;0.80;;;;;;;20.19;43.36;101256.88;4956208;28;125541;-81
2024/04/07 06:45:09;;;;;;;1.70;0.90;;;;;;;20.21;43.28;101249.53;4962621;28;123513;-80
2024/04/07 06:47:35;;;;;;;1.58;0.85;;;;;;;20.23;43.38;101255.69;4973031;28;115158;-81
2024/04/07 06:50:01;;;;;;;3.40;1.08;;;;;;;20.26;43.48;101268.88;4933755;28;114053;-81
2024/04/07 06:52:27;;;;;;;2.45;0.80;;;;;;;20.27;43.48;101259.84;4953772;28;124053;-80
2024/04/07 06:54:54;;;;;;;1.92;0.80;;;;;;;20.30;43.34;101251.50;4954304;28;124123;-80
2024/04/07 06:57:21;;;;;;;1.88;0.60;;;;;;;20.33;43.58;101255.78;4933381;28;113711;-80
2024/04/07 06:59:50;;;;;;;1.90;0.75;;;;;;;20.36;43.55;101264.47;4957442;28;113977;-81
2024/04/07 07:02:17;;;;;;;1.58;1.00;;;;;;;20.40;43.55;101259.72;4966376;28;123994;-81
2024/04/07 07:04:43;;;;;;;2.67;0.98;;;;;;;20.41;43.48;101256.88;4935543;28;123610;-81
2024/04/07 07:07:09;;;;;;;1.30;0.90;;;;;;;20.46;43.60;101255.69;4946272;28;113129;-81
2024/04/07 07:09:35;;;;;;;2.65;0.80;;;;;;;20.47;43.54;101270.81;4948394;28;114148;-81
2024/04/07 07:12:02;;;;;;;1.33;1.02;;;;;;;20.48;43.66;101267.16;4933361;28;123106;-81
2024/04/07 07:14:29;;;;;;;1.67;0.60;;;;;;;20.52;43.61;101274.00;4945901;28;124274;-81
2024/04/07 07:16:55;;;;;;;1.60;1.00;;;;;;;20.53;43.54;101275.72;4953222;28;113459;-81
2024/04/07 07:19:21;;;;;;;1.88;0.80;;;;;;;20.55;43.72;101279.13;4962529;28;114313;-81
2024/04/07 07:21:48;;;;;;;3.15;0.90;;;;;;;20.56;43.79;101275.47;4931153;28;123147;-81
2024/04/07 07:24:14;;;;;;;2.85;1.65;;;;;;;20.58;43.89;101273.50;4948363;28;123619;-80
2024/04/07 07:26:41;;;;;;;1.23;0.90;;;;;;;20.61;43.81;101281.38;4970098;28;113412;-80
2024/04/07 07:29:07;;;;;;;2.03;1.00;;;;;;;20.63;43.84;101282.13;4941119;28;114900;-82
2024/04/07 07:31:34;;;;;;;2.17;1.45;;;;;;;20.66;43.67;101289.06;4951574;28;127631;-82
2024/04/07 07:34:00;;;;;;;2.88;1.20;;;;;;;20.68;43.83;101300.56;4948613;28;122537;-80
2024/04/07 07:36:26;;;;;;;2.35;0.98;;;;;;;20.70;43.90;101304.88;4955544;28;114852;-80
2024/04/07 07:38:52;;;;;;;2.67;1.20;;;;;;;20.72;43.98;101308.28;4956812;28;114736;-81
2024/04/07 07:41:18;;;;;;;2.92;1.33;;;;;;;20.71;43.92;101311.94;4965158;28;124857;-81
2024/04/07 07:43:45;;;;;;;2.28;0.95;;;;;;;20.69;43.98;101319.28;4971743;28;124107;-82
2024/04/07 07:46:12;;;;;;;3.55;1.30;;;;;;;20.69;43.98;101316.59;4949978;28;113787;-81
2024/04/07 07:48:39;;;;;;;4.10;1.55;;;;;;;20.68;44.17;101317.59;4932560;28;114047;-82
2024/04/07 07:51:09;;;;;;;1.73;1.15;;;;;;;20.75;44.38;101307.19;4957627;28;123559;-81
2024/04/07 07:53:37;;;;;;;4.28;1.23;;;;;;;20.86;44.46;101314.38;4964768;28;124565;-82
2024/04/07 07:56:07;;;;;;;3.20;1.02;;;;;;;20.96;44.28;101315.34;4953598;28;113246;-82
2024/04/07 07:58:35;;;;;;;2.92;1.20;;;;;;;21.07;44.26;101318.00;4960728;28;115418;-81
2024/04/07 08:01:02;;;;;;;2.58;1.65;;;;;;;21.16;44.38;101333.41;4945844;28;123036;-82
2024/04/07 08:03:28;;;;;;;2.80;1.13;;;;;;;21.30;44.44;101339.50;4964763;28;124132;-81
2024/04/07 08:05:54;;;;;;;4.57;1.25;;;;;;;21.43;44.26;101345.59;4966259;28;114471;-81
2024/04/07 08:08:21;;;;;;;2.85;1.30;;;;;;;21.53;44.23;101335.81;4939245;28;112581;-81
2024/04/07 08:10:48;;;;;;;3.03;1.40;;;;;;;21.63;44.26;101340.44;4954908;28;122354;-81
2024/04/07 08:13:14;;;;;;;2.35;1.20;;;;;;;21.73;43.83;101341.34;4950194;28;123564;-81
2024/04/07 08:15:43;;;;;;;3.22;1.33;;;;;;;21.82;43.84;101335.19;4932098;28;114169;-82
2024/04/07 08:18:13;;;;;;;4.30;1.30;;;;;;;21.89;43.74;101341.75;4943384;28;112866;-81
2024/04/07 08:20:41;;;;;;;5.93;1.95;;;;;;;21.99;43.74;101346.38;4933070;28;121948;-81
2024/04/07 08:23:09;;;;;;;2.47;1.50;;;;;;;22.05;43.79;101348.53;4950100;28;123654;-81
2024/04/07 08:25:36;;;;;;;3.22;1.15;;;;;;;22.15;43.70;101347.63;4943188;28;114813;-81
2024/04/07 08:28:04;;;;;;;3.08;1.05;;;;;;;22.26;43.64;101343.16;4958712;28;115197;-81
2024/04/07 08:30:31;;;;;;;1.52;0.85;;;;;;;22.32;43.63;101346.19;4932369;28;122214;-83
2024/04/07 08:32:58;;;;;;;3.90;1.17;;;;;;;22.36;43.35;101338.69;4965666;28;123821;-81
2024/04/07 08:35:25;;;;;;;3.10;1.05;;;;;;;22.31;42.99;101336.38;4947563;28;113720;-82
2024/04/07 08:37:51;;;;;;;4.80;1.77;;;;;;;22.28;43.01;101333.97;4952228;28;112787;-82
2024/04/07 08:40:17;;;;;;;4.30;1.13;;;;;;;22.27;43.03;101340.34;4962539;28;124094;-81
2024/04/07 08:42:44;;;;;;;1.42;1.13;;;;;;;22.31;43.19;101341.78;4957686;28;124455;-81
2024/04/07 08:45:11;;;;;;;2.63;1.58;;;;;;;22.34;43.29;101338.81;4954409;28;113639;-83
2024/04/07 08:47:38;;;;;;;3.60;1.60;;;;;;;22.42;43.32;101342.69;4955047;28;112692;-81
2024/04/07 08:50:05;;;;;;;1.98;1.10;;;;;;;22.51;43.24;101347.28;4957639;28;123501;-82
2024/04/07 08:52:32;;;;;;;1.70;1.00;;;;;;;22.61;43.16;101342.78;4932191;28;123475;-81
2024/04/07 08:54:58;;;;;;;4.07;1.00;;;;;;;22.73;42.91;101341.72;4945281;28;112292;-81
2024/04/07 08:57:25;;;;;;;2.70;0.93;;;;;;;22.84;42.98;101343.44;4953542;28;113724;-81
2024/04/07 08:59:52;;;;;;;4.57;1.40;;;;;;;22.96;43.09;101346.88;4946584;28;123095;-81
2024/04/07 09:02:20;;;;;;;4.50;1.30;;;;;;;23.07;42.80;101348.66;4955759;28;123676;-82
2024/04/07 09:04:46;;;;;;;3.67;1.15;;;;;;;23.15;42.71;101347.97;4938305;28;112870;-82
2024/04/07 09:07:12;;;;;;;2.47;1.33;;;;;;;23.24;42.45;101352.53;4955516;28;113394;-82
2024/04/07 09:09:39;;;;;;;3.55;1.33;;;;;;;23.28;42.78;101351.25;4944283;28;123568;-81
2024/04/07 09:12:08;;;;;;;3.50;1.10;;;;;;;23.36;42.66;101343.31;4947119;28;123879;-81
2024/04/07 09:14:36;;;;;;;4.50;1.23;;;;;;;23.43;42.11;101344.47;4968079;28;114962;-81
2024/04/07 09:17:07;;;;;;;1.95;1.00;;;;;;;23.48;42.16;101344.88;4970575;28;115288;-82
2024/04/07 09:19:38;;;;;;;4.18;1.25;;;;;;;23.50;41.97;101352.84;4941719;28;124637;-82
2024/04/07 09:22:06;;;;;;;5.18;1.40;;;;;;;23.54;41.45;101361.53;4964709;28;124201;-83
2024/04/07 09:24:34;;;;;;;2.22;1.30;;;;;;;23.49;41.46;101352.00;4952727;28;113476;-81
2024/04/07 09:27:04;;;;;;;2.42;1.20;;;;;;;23.45;41.33;101342.47;4950074;28;114068;-82
2024/04/07 09:29:31;;;;;;;3.22;1.30;;;;;;;23.38;41.17;101349.44;4941323;28;124648;-82
2024/04/07 09:32:01;;;;;;;2.95;1.30;;;;;;;23.32;41.18;101342.75;4934903;28;124197;-82
2024/04/07 09:34:32;;;;;;;3.55;1.55;;;;;;;23.34;41.05;101345.31;4927165;28;113088;-82
2024/04/07 09:37:02;;;;;;;3.10;1.38;;;;;;;23.35;41.03;101347.00;4949515;28;114206;-82
2024/04/07 09:39:28;;;;;;;3.85;1.48;;;;;;;23.35;41.03;101341.59;4947320;28;124873;-81
2024/04/07 09:41:58;;;;;;;4.97;1.17;;;;;;;23.37;41.01;101354.97;4963781;28;124708;-82
2024/04/07 09:44:28;;;;;;;2.95;1.25;;;;;;;23.41;40.76;101357.25;4958336;28;115275;-84
2024/04/07 09:47:06;;;;;;;1.80;1.15;;;;;;;23.43;40.65;101344.47;4961498;28;113201;-82
2024/04/07 09:49:38;;;;;;;3.45;1.00;;;;;;;23.47;40.73;101345.91;4953434;28;123504;-83
2024/04/07 09:52:05;;;;;;;2.85;1.33;;;;;;;23.57;41.04;101339.63;4951337;28;123916;-83
2024/04/07 09:54:39;;;;;;;3.15;1.30;;;;;;;23.67;40.76;101340.47;4928028;28;112308;-83
2024/04/07 09:57:11;;;;;;;2.70;1.10;;;;;;;23.77;40.57;101346.75;4927572;28;113130;-82
2024/04/07 09:59:38;;;;;;;2.42;1.30;;;;;;;23.87;40.67;101342.22;4946106;28;124652;-83
2024/04/07 10:02:05;;;;;;;2.92;1.38;;;;;;;23.95;40.47;101337.94;4945011;28;123897;-82
2024/04/07 10:04:33;;;;;;;2.33;1.35;;;;;;;24.02;40.85;101344.50;4947750;28;113998;-81
2024/04/07 10:07:03;;;;;;;2.33;1.02;;;;;;;24.08;40.46;101346.59;4965124;28;114332;-83
2024/04/07 10:09:31;;;;;;;4.72;1.30;;;;;;;24.16;40.41;101346.72;4939810;28;126828;-83
2024/04/07 10:11:58;;;;;;;3.85;1.70;;;;;;;24.25;40.44;101356.69;4928766;28;122749;-82
2024/04/07 10:14:35;;;;;;;3.70;1.30;;;;;;;24.34;39.81;101354.13;4946086;28;113607;-83
2024/04/07 10:17:01;;;;;;;2.17;1.20;;;;;;;24.37;39.60;101348.38;4948237;28;113224;-82
2024/04/07 10:19:28;;;;;;;3.58;1.40;;;;;;;24.39;39.49;101338.25;4946235;28;123934;-81
2024/04/07 10:21:54;;;;;;;3.05;1.65;;;;;;;24.42;39.38;101341.53;4968266;28;124183;-84
2024/04/07 10:24:20;;;;;;;2.65;1.40;;;;;;;24.45;39.44;101334.97;4955066;28;113470;-82
2024/04/07 10:26:54;;;;;;;1.85;1.08;;;;;;;24.44;39.16;101334.09;4973330;28;112894;-81
2024/04/07 10:29:25;;;;;;;2.53;1.40;;;;;;;24.46;39.09;101342.09;4948499;28;123656;-81
2024/04/07 10:31:51;;;;;;;4.32;1.40;;;;;;;24.47;38.75;101333.81;4952751;28;123285;-81
2024/04/07 10:34:17;;;;;;;2.90;1.23;;;;;;;24.49;39.02;101336.38;4962951;28;114057;-84
2024/04/07 10:37:02;;;;;;;1.75;1.10;;;;;;;24.50;39.01;101338.06;4968021;28;114402;-81
2024/04/07 10:39:29;;;;;;;1.90;1.30;;;;;;;24.54;38.83;101333.25;4968541;28;125059;-82
2024/04/07 10:41:55;;;;;;;3.17;1.00;;;;;;;24.56;38.38;101331.25;4949527;28;124089;-81
2024/04/07 10:44:21;;;;;;;1.98;1.10;;;;;;;24.57;38.27;101333.81;4969293;28;114799;-82
2024/04/07 10:46:48;;;;;;;3.38;1.27;;;;;;;24.61;38.07;101340.63;4960373;28;114377;-81
2024/04/07 10:49:14;;;;;;;1.75;1.10;;;;;;;24.64;37.99;101329.50;4947875;28;123701;-82
2024/04/07 10:51:46;;;;;;;3.15;1.10;;;;;;;24.64;37.90;101323.25;4926592;28;123106;-81
2024/04/07 10:54:12;;;;;;;2.13;1.00;;;;;;;24.69;38.04;101326.34;4940966;28;114497;-81
2024/04/07 10:56:41;;;;;;;3.63;1.00;;;;;;;24.71;37.63;101324.31;4962594;28;114852;-82
2024/04/07 10:59:07;;;;;;;2.67;1.30;;;;;;;24.68;37.51;101336.34;4948004;28;124440;-82
2024/04/07 11:01:33;;;;;;;1.80;0.95;;;;;;;24.64;37.20;101334.94;4944237;28;123115;-81
2024/04/07 11:03:59;;;;;;;1.70;1.30;;;;;;;24.62;36.98;101334.22;4964705;28;113755;-82
2024/04/07 11:06:26;;;;;;;2.17;1.10;;;;;;;24.62;36.99;101334.22;4949327;28;113320;-81
2024/04/07 11:08:53;;;;;;;3.30;1.38;;;;;;;24.62;36.73;101330.66;4962508;28;123917;-81
2024/04/07 11:11:21;;;;;;;2.40;1.30;;;;;;;24.62;37.19;101334.22;4943476;28;120185;-81
2024/04/07 11:13:51;;;;;;;1.60;1.20;;;;;;;24.61;36.68;101340.63;4945612;28;114194;-83
2024/04/07 11:16:17;;;;;;;2.08;1.13;;;;;;;24.61;36.92;101337.06;4949661;28;113977;-80
2024/04/07 11:18:44;;;;;;;2.92;1.10;;;;;;;24.60;37.05;101338.06;4947548;28;123450;-81
2024/04/07 11:21:10;;;;;;;2.15;1.05;;;;;;;24.61;36.98;101329.78;4966641;28;123155;-81